Time;durP1;ratioP1;P1;durP2;ratioP2;P2;SDS_P1;SDS_P2;PMS_P1;PMS_P2;Temp;Humidity;BMP_temperature;BMP_pressure;BME280_temperature;BME280_humidity;BME280_pressure;Samples;Min_cycle;Max_cycle;Signal;HPM_P1;HPM_P2
2021/05/27 00:02:12;;;;;;;8.68;7.97;;;10.90;78.60;;;;;;5172357;28;20119;-69
2021/05/27 00:04:44;;;;;;;8.52;7.82;;;11.00;78.30;;;;;;5191739;28;20034;-68
2021/05/27 00:07:16;;;;;;;9.00;8.30;;;10.80;78.60;;;;;;5189156;28;20058;-70
2021/05/27 00:09:48;;;;;;;9.15;8.45;;;10.80;78.30;;;;;;5189473;28;20042;-70
2021/05/27 00:12:20;;;;;;;9.07;8.13;;;10.80;78.40;;;;;;5190294;28;20045;-68
2021/05/27 00:14:52;;;;;;;8.38;7.68;;;10.70;79.30;;;;;;5188440;28;20524;-69
2021/05/27 00:17:24;;;;;;;8.45;7.75;;;10.70;78.20;;;;;;5177809;28;20049;-68
2021/05/27 00:19:56;;;;;;;8.73;8.02;;;10.70;78.20;;;;;;5192295;28;20092;-68
2021/05/27 00:22:28;;;;;;;8.80;8.10;;;10.70;78.60;;;;;;5190376;28;20049;-68
2021/05/27 00:25:01;;;;;;;8.25;7.63;;;10.70;78.10;;;;;;5191121;28;20601;-68
2021/05/27 00:27:45;;;;;;;8.13;7.47;;;10.60;78.10;;;;;;5190211;28;20172;-68
2021/05/27 00:30:17;;;;;;;8.50;7.80;;;10.50;78.80;;;;;;5193642;28;20029;-68
2021/05/27 00:32:49;;;;;;;8.00;7.40;;;10.50;78.50;;;;;;5171966;28;20115;-68
2021/05/27 00:35:22;;;;;;;7.95;7.35;;;10.40;78.60;;;;;;5174742;28;20050;-68
2021/05/27 00:37:54;;;;;;;8.07;7.47;;;10.30;78.50;;;;;;5191086;28;20057;-69
2021/05/27 00:40:26;;;;;;;8.00;7.40;;;10.30;78.60;;;;;;5186873;28;20069;-68
2021/05/27 00:42:58;;;;;;;7.95;7.35;;;10.30;78.30;;;;;;5190576;28;20037;-69
2021/05/27 00:45:30;;;;;;;8.13;7.40;;;10.30;78.30;;;;;;5191420;28;20038;-70
2021/05/27 00:48:03;;;;;;;7.60;7.00;;;10.30;78.20;;;;;;5190964;28;20390;-68
2021/05/27 00:50:35;;;;;;;8.15;7.35;;;10.30;77.90;;;;;;5174575;28;20524;-69
2021/05/27 00:53:07;;;;;;;7.78;7.18;;;10.30;79.20;;;;;;5178245;28;20521;-68
2021/05/27 00:55:39;;;;;;;7.72;7.13;;;10.20;79.30;;;;;;5187531;28;20053;-70
2021/05/27 00:58:13;;;;;;;7.97;7.38;;;10.20;79.20;;;;;;5210826;28;20065;-69
2021/05/27 01:00:47;;;;;;;7.90;7.22;;;10.20;79.60;;;;;;5199467;28;20048;-68
2021/05/27 01:03:19;;;;;;;8.23;7.63;;;10.20;78.80;;;;;;5210081;28;20033;-68
2021/05/27 01:05:51;;;;;;;8.15;7.55;;;10.20;79.50;;;;;;5206923;28;20072;-68
2021/05/27 01:08:23;;;;;;;7.97;7.38;;;10.10;79.30;;;;;;5212309;28;20562;-68
2021/05/27 01:10:56;;;;;;;8.00;7.40;;;10.10;79.10;;;;;;5195004;28;20045;-68
2021/05/27 01:13:28;;;;;;;8.27;7.68;;;10.10;79.70;;;;;;5209202;28;20075;-68
2021/05/27 01:16:01;;;;;;;8.40;7.70;;;10.10;79.10;;;;;;5225048;28;20045;-67
2021/05/27 01:18:33;;;;;;;8.60;7.90;;;10.20;79.40;;;;;;5209540;28;20052;-69
2021/05/27 01:21:05;;;;;;;8.60;7.90;;;10.00;79.70;;;;;;5201464;28;20090;-69
2021/05/27 01:23:38;;;;;;;8.55;7.80;;;10.00;79.80;;;;;;5209180;28;20047;-69
2021/05/27 01:26:12;;;;;;;8.43;7.80;;;9.90;79.70;;;;;;5208926;28;20049;-68
2021/05/27 01:28:44;;;;;;;8.82;8.02;;;9.90;79.70;;;;;;5207944;28;20042;-70
2021/05/27 01:31:17;;;;;;;8.90;8.20;;;9.90;79.80;;;;;;5198498;28;20515;-67
2021/05/27 01:33:50;;;;;;;8.73;8.02;;;9.80;79.50;;;;;;5207364;28;20136;-68
2021/05/27 01:36:23;;;;;;;8.35;7.65;;;9.80;79.90;;;;;;5194619;28;20051;-68
2021/05/27 01:38:55;;;;;;;8.52;7.82;;;9.70;80.40;;;;;;5207892;28;20041;-68
2021/05/27 01:41:27;;;;;;;9.15;8.45;;;9.60;80.70;;;;;;5208098;28;20128;-68
2021/05/27 01:44:02;;;;;;;8.57;7.88;;;9.60;80.30;;;;;;5224488;28;20107;-67
2021/05/27 01:46:34;;;;;;;7.93;7.32;;;9.70;80.30;;;;;;5211887;28;20112;-67
2021/05/27 01:49:09;;;;;;;8.52;7.82;;;9.70;80.00;;;;;;5210023;28;20639;-68
2021/05/27 01:51:46;;;;;;;7.90;7.30;;;9.70;80.20;;;;;;5209775;28;20433;-68
2021/05/27 01:54:20;;;;;;;8.05;7.45;;;9.70;80.00;;;;;;5189720;28;20049;-70
2021/05/27 01:56:52;;;;;;;8.65;7.95;;;9.70;79.90;;;;;;5205420;28;20855;-67
2021/05/27 01:59:26;;;;;;;7.93;7.22;;;9.70;80.40;;;;;;5188197;28;20101;-69
2021/05/27 02:01:58;;;;;;;8.40;7.70;;;9.70;80.70;;;;;;5172089;28;20644;-68
2021/05/27 02:04:30;;;;;;;8.50;7.80;;;9.70;80.50;;;;;;5178048;28;20041;-68
2021/05/27 02:07:14;;;;;;;8.20;7.60;;;9.60;80.50;;;;;;5188307;28;20045;-67
2021/05/27 02:09:49;;;;;;;8.43;7.72;;;9.60;80.70;;;;;;5159361;28;20080;-67
2021/05/27 02:12:23;;;;;;;8.40;7.80;;;9.60;80.60;;;;;;5169349;28;20044;-68
2021/05/27 02:14:55;;;;;;;8.05;7.43;;;9.60;80.10;;;;;;5191193;28;20266;-68
2021/05/27 02:17:27;;;;;;;8.38;7.75;;;9.60;81.10;;;;;;5185774;28;20068;-69
2021/05/27 02:19:59;;;;;;;7.97;7.38;;;9.50;80.30;;;;;;5206116;28;20057;-68
2021/05/27 02:22:31;;;;;;;8.23;7.60;;;9.50;80.40;;;;;;5183884;28;20093;-69
2021/05/27 02:25:17;;;;;;;8.20;7.57;;;9.40;80.60;;;;;;5189681;28;20666;-70
2021/05/27 02:27:55;;;;;;;8.07;7.47;;;9.40;80.90;;;;;;5161547;28;20034;-68
2021/05/27 02:30:28;;;;;;;8.23;7.53;;;9.40;80.80;;;;;;5187216;28;20037;-68
2021/05/27 02:33:03;;;;;;;8.85;8.15;;;9.30;81.60;;;;;;5170436;28;20639;-69
2021/05/27 02:35:35;;;;;;;8.18;7.57;;;9.30;81.80;;;;;;5171128;28;20048;-68
2021/05/27 02:38:07;;;;;;;8.43;7.72;;;9.20;81.60;;;;;;5171884;28;20864;-68
2021/05/27 02:40:43;;;;;;;7.97;7.38;;;9.30;81.80;;;;;;5188756;28;20139;-68
2021/05/27 02:43:17;;;;;;;8.50;7.80;;;9.20;81.70;;;;;;5172040;28;20504;-68
2021/05/27 02:45:49;;;;;;;8.10;7.50;;;9.20;81.80;;;;;;5171728;28;20076;-69
2021/05/27 02:48:23;;;;;;;7.90;7.20;;;9.20;81.60;;;;;;5186540;28;20683;-69
2021/05/27 02:50:55;;;;;;;8.07;7.45;;;9.20;82.80;;;;;;5201693;28;20100;-68
2021/05/27 02:53:32;;;;;;;8.07;7.47;;;9.20;81.60;;;;;;5201849;28;20124;-68
2021/05/27 02:56:04;;;;;;;7.90;7.30;;;9.10;81.40;;;;;;5205010;28;20045;-67
2021/05/27 02:58:43;;;;;;;8.10;7.47;;;9.10;81.50;;;;;;5177608;28;20133;-68
2021/05/27 03:01:16;;;;;;;7.90;7.30;;;9.10;81.50;;;;;;5184834;28;20583;-68
2021/05/27 03:03:54;;;;;;;7.80;7.20;;;9.10;81.20;;;;;;5188464;28;20057;-68
2021/05/27 03:06:26;;;;;;;8.50;7.80;;;9.00;81.80;;;;;;5188081;28;20046;-68
2021/05/27 03:09:01;;;;;;;9.05;8.32;;;9.00;82.50;;;;;;5177947;28;20485;-68
2021/05/27 03:11:32;;;;;;;8.15;7.55;;;8.90;81.80;;;;;;5188412;28;20142;-68
2021/05/27 03:14:07;;;;;;;8.00;7.40;;;9.00;81.80;;;;;;5170935;28;20116;-69
2021/05/27 03:16:52;;;;;;;8.10;7.50;;;9.00;81.90;;;;;;5199687;28;20053;-68
2021/05/27 03:19:25;;;;;;;8.50;7.80;;;9.00;81.80;;;;;;5185230;28;20045;-68
2021/05/27 03:21:57;;;;;;;8.45;7.75;;;9.10;82.00;;;;;;5186817;28;20042;-68
2021/05/27 03:24:29;;;;;;;8.40;7.70;;;9.00;82.30;;;;;;5174325;28;20069;-69
2021/05/27 03:27:01;;;;;;;8.70;7.90;;;9.00;82.20;;;;;;5187160;28;20046;-67
2021/05/27 03:29:33;;;;;;;8.45;7.82;;;9.00;82.10;;;;;;5188760;28;20662;-67
2021/05/27 03:32:07;;;;;;;9.02;8.32;;;9.10;82.00;;;;;;5203185;28;20046;-67
2021/05/27 03:34:40;;;;;;;8.70;8.00;;;9.10;82.50;;;;;;5189340;28;20527;-68
2021/05/27 03:37:12;;;;;;;8.20;7.60;;;9.10;82.10;;;;;;5204084;28;20042;-69
2021/05/27 03:40:10;;;;;;;8.65;7.95;;;9.10;81.80;;;;;;5185717;28;20042;-69
2021/05/27 03:42:42;;;;;;;8.88;8.10;;;9.10;81.60;;;;;;5164848;28;20519;-68
2021/05/27 03:45:23;;;;;;;8.57;7.88;;;9.20;82.50;;;;;;5188602;28;20057;-67
2021/05/27 03:48:06;;;;;;;8.50;7.80;;;9.20;81.50;;;;;;5190265;28;20689;-68
2021/05/27 03:50:38;;;;;;;8.77;8.07;;;9.20;81.60;;;;;;5192577;28;20507;-70
2021/05/27 03:53:13;;;;;;;8.88;8.18;;;9.20;81.90;;;;;;5172267;28;20053;-69
2021/05/27 03:55:49;;;;;;;8.32;7.63;;;9.10;81.80;;;;;;5189889;28;20045;-68
2021/05/27 04:01:12;;;;;;;;;;;9.10;81.40;;;;;;5212112;28;20049;-68
2021/05/27 04:07:16;;;;;;;8.57;7.88;;;9.20;81.10;;;;;;5208791;28;20068;-69
2021/05/27 04:09:47;;;;;;;;;;;9.20;81.60;;;;;;5227397;28;20099;-68
2021/05/27 04:15:24;;;;;;;9.02;8.30;;;9.20;82.10;;;;;;5211364;28;20045;-68
2021/05/27 04:18:18;;;;;;;9.18;8.48;;;9.20;82.10;;;;;;5209487;28;20558;-69
2021/05/27 04:20:55;;;;;;;8.90;8.20;;;9.30;82.00;;;;;;5209605;28;20060;-68
2021/05/27 04:23:35;;;;;;;8.82;8.13;;;9.20;81.60;;;;;;5210648;28;20038;-68
2021/05/27 04:26:13;;;;;;;9.23;8.52;;;9.20;81.50;;;;;;5195337;28;20072;-68
2021/05/27 04:28:46;;;;;;;9.43;8.70;;;9.20;81.70;;;;;;5209060;28;20049;-69
2021/05/27 04:31:18;;;;;;;8.55;7.85;;;9.30;81.80;;;;;;5209474;28;20053;-68
2021/05/27 04:33:53;;;;;;;8.90;8.20;;;9.30;81.60;;;;;;5211810;28;20052;-68
2021/05/27 04:36:26;;;;;;;8.73;8.02;;;9.30;81.80;;;;;;5210051;28;20073;-68
2021/05/27 04:38:58;;;;;;;8.95;8.18;;;9.20;82.30;;;;;;5227957;28;20049;-68
2021/05/27 04:41:30;;;;;;;8.93;8.23;;;9.20;82.60;;;;;;5209016;28;20460;-70
2021/05/27 04:44:02;;;;;;;9.02;8.25;;;9.20;82.60;;;;;;5211180;28;20064;-68
2021/05/27 04:46:34;;;;;;;8.93;8.23;;;9.10;82.50;;;;;;5210703;28;20041;-70
2021/05/27 04:49:06;;;;;;;8.93;8.23;;;9.20;82.30;;;;;;5211294;28;20038;-69
2021/05/27 04:51:38;;;;;;;9.20;8.40;;;9.20;82.50;;;;;;5210839;28;20120;-68
2021/05/27 04:54:10;;;;;;;8.82;8.13;;;9.20;82.80;;;;;;5210452;28;20134;-68
2021/05/27 04:56:44;;;;;;;9.20;8.50;;;9.20;82.40;;;;;;5193967;28;20037;-69
2021/05/27 04:59:16;;;;;;;8.98;8.18;;;9.20;82.30;;;;;;5190829;28;20046;-69
2021/05/27 05:01:48;;;;;;;8.93;8.23;;;9.20;82.50;;;;;;5189165;28;20045;-69
2021/05/27 05:04:20;;;;;;;8.70;8.00;;;9.10;82.70;;;;;;5187327;28;20164;-68
2021/05/27 05:06:52;;;;;;;9.45;8.65;;;9.10;82.50;;;;;;5188145;28;20101;-68
2021/05/27 05:09:24;;;;;;;9.20;8.40;;;9.20;82.50;;;;;;5191190;28;20155;-68
2021/05/27 05:11:55;;;;;;;9.18;8.32;;;9.30;82.70;;;;;;5189746;28;20132;-68
2021/05/27 05:14:27;;;;;;;9.00;8.30;;;9.30;82.30;;;;;;5188889;28;20041;-67
2021/05/27 05:16:59;;;;;;;8.85;8.07;;;9.30;82.30;;;;;;5191822;28;20036;-67
2021/05/27 05:19:31;;;;;;;8.43;7.68;;;9.40;82.00;;;;;;5171062;28;20977;-68
2021/05/27 05:22:03;;;;;;;8.60;7.90;;;9.40;81.60;;;;;;5187748;28;20042;-67
2021/05/27 05:24:36;;;;;;;8.40;7.70;;;9.40;81.30;;;;;;5189310;28;20112;-69
2021/05/27 05:27:08;;;;;;;8.77;8.07;;;9.40;81.90;;;;;;5191070;28;21026;-68
2021/05/27 05:29:40;;;;;;;8.88;8.18;;;9.40;82.00;;;;;;5190407;28;20046;-68
2021/05/27 05:32:11;;;;;;;8.80;8.10;;;9.50;81.90;;;;;;5185927;28;20481;-68
2021/05/27 05:34:43;;;;;;;9.10;8.40;;;9.50;81.90;;;;;;5186550;28;20450;-69
2021/05/27 05:37:15;;;;;;;9.07;8.27;;;9.60;82.10;;;;;;5177249;28;20050;-69
2021/05/27 05:39:47;;;;;;;9.15;8.38;;;9.60;82.00;;;;;;5189203;28;20133;-69
2021/05/27 05:42:21;;;;;;;9.10;8.40;;;9.60;82.20;;;;;;5187463;28;20133;-70
2021/05/27 05:44:53;;;;;;;9.10;8.27;;;9.60;82.00;;;;;;5189344;28;20046;-69
2021/05/27 05:47:25;;;;;;;9.10;8.30;;;9.70;82.20;;;;;;5186690;28;20082;-69
2021/05/27 05:49:57;;;;;;;9.10;8.40;;;9.70;81.50;;;;;;5192035;28;20121;-69
2021/05/27 05:52:30;;;;;;;9.65;8.85;;;9.70;79.90;;;;;;5185101;28;20477;-70
2021/05/27 05:55:03;;;;;;;8.95;8.20;;;9.70;81.20;;;;;;5187776;28;20100;-69
2021/05/27 05:57:35;;;;;;;9.40;8.52;;;9.80;81.10;;;;;;5186157;28;20441;-69
2021/05/27 06:00:08;;;;;;;9.20;8.40;;;9.80;81.70;;;;;;5186336;28;20053;-69
2021/05/27 06:02:46;;;;;;;8.85;8.05;;;9.90;81.90;;;;;;5187576;28;20045;-69
2021/05/27 06:05:33;;;;;;;8.50;7.80;;;9.90;80.70;;;;;;5158008;28;20057;-69
2021/05/27 06:08:30;;;;;;;8.15;7.45;;;9.90;80.80;;;;;;5170221;28;20044;-69
2021/05/27 06:11:02;;;;;;;8.35;7.65;;;10.00;79.80;;;;;;5186490;28;20041;-69
2021/05/27 06:13:35;;;;;;;10.70;7.65;;;9.90;79.70;;;;;;5186865;28;20095;-69
2021/05/27 06:16:07;;;;;;;9.65;8.68;;;10.00;79.90;;;;;;5188587;28;20050;-71
2021/05/27 06:18:38;;;;;;;9.02;8.23;;;9.90;80.00;;;;;;5186384;28;20045;-70
2021/05/27 06:21:29;;;;;;;9.10;8.13;;;9.90;80.70;;;;;;5185016;28;20045;-70
2021/05/27 06:24:05;;;;;;;9.15;8.45;;;10.00;81.00;;;;;;5203602;28;20041;-70
2021/05/27 06:26:41;;;;;;;9.30;8.60;;;10.10;81.40;;;;;;5187820;28;20038;-71
2021/05/27 06:29:13;;;;;;;8.80;8.10;;;10.10;80.90;;;;;;5186816;28;20131;-70
2021/05/27 06:31:47;;;;;;;8.95;8.15;;;10.20;80.10;;;;;;5187770;28;20042;-70
2021/05/27 06:34:19;;;;;;;9.30;8.52;;;10.20;79.60;;;;;;5184443;28;20045;-70
2021/05/27 06:36:51;;;;;;;9.02;8.32;;;10.30;79.40;;;;;;5190484;28;20092;-71
2021/05/27 06:39:24;;;;;;;9.05;8.32;;;10.30;80.00;;;;;;5189438;28;20121;-71
2021/05/27 06:41:56;;;;;;;8.55;7.85;;;10.30;79.50;;;;;;5172652;28;20321;-70
2021/05/27 06:44:28;;;;;;;11.20;7.88;;;10.30;79.20;;;;;;5187222;28;20087;-70
2021/05/27 06:47:00;;;;;;;8.60;7.80;;;10.30;80.20;;;;;;5187536;28;20505;-70
2021/05/27 06:49:32;;;;;;;8.40;7.70;;;10.30;79.70;;;;;;5188249;28;20069;-71
2021/05/27 06:52:04;;;;;;;8.70;7.80;;;10.30;79.50;;;;;;5186931;28;20053;-70
2021/05/27 06:54:36;;;;;;;7.93;7.30;;;10.30;80.20;;;;;;5188549;28;20049;-70
2021/05/27 06:57:08;;;;;;;8.25;7.45;;;10.30;80.20;;;;;;5186268;28;20185;-70
2021/05/27 06:59:40;;;;;;;8.18;7.53;;;10.40;80.80;;;;;;5189335;28;20045;-70
2021/05/27 07:02:11;;;;;;;8.55;7.85;;;10.40;80.30;;;;;;5187220;28;20100;-70
2021/05/27 07:04:46;;;;;;;9.07;8.27;;;10.50;80.70;;;;;;5187291;28;20077;-71
2021/05/27 07:07:18;;;;;;;9.43;8.63;;;10.50;79.90;;;;;;5184396;28;20042;-71
2021/05/27 07:09:50;;;;;;;9.45;8.63;;;10.50;79.80;;;;;;5188519;28;20540;-71
2021/05/27 07:12:21;;;;;;;8.93;8.23;;;10.50;80.00;;;;;;5186384;28;20498;-71
2021/05/27 07:14:54;;;;;;;9.38;8.52;;;10.50;79.80;;;;;;5187988;28;20440;-70
2021/05/27 07:17:25;;;;;;;9.13;8.32;;;10.60;80.00;;;;;;5200845;28;20099;-71
2021/05/27 07:19:58;;;;;;;9.27;8.48;;;10.60;80.00;;;;;;5189984;28;20587;-70
2021/05/27 07:22:30;;;;;;;9.27;8.40;;;10.50;78.90;;;;;;5174376;28;20133;-70
2021/05/27 07:25:02;;;;;;;9.07;8.27;;;10.50;78.90;;;;;;5192964;28;20053;-71
2021/05/27 07:27:35;;;;;;;9.13;8.23;;;10.50;78.90;;;;;;5192116;28;20053;-70
2021/05/27 07:30:08;;;;;;;9.50;7.88;;;10.50;78.60;;;;;;5192963;28;20043;-70
2021/05/27 07:32:40;;;;;;;9.20;8.40;;;10.50;78.40;;;;;;5189716;28;20080;-70
2021/05/27 07:35:13;;;;;;;8.30;7.50;;;10.50;78.90;;;;;;5188721;28;20045;-70
2021/05/27 07:37:45;;;;;;;8.63;7.82;;;10.40;77.30;;;;;;5189757;28;20065;-70
2021/05/27 07:40:18;;;;;;;8.32;7.63;;;10.50;78.40;;;;;;5189930;28;20459;-70
2021/05/27 07:42:50;;;;;;;8.80;8.10;;;10.50;78.60;;;;;;5190599;28;20164;-71
2021/05/27 07:45:21;;;;;;;9.00;8.20;;;10.50;78.20;;;;;;5192244;28;20038;-71
2021/05/27 07:47:54;;;;;;;9.30;8.55;;;10.50;77.10;;;;;;5182554;28;20213;-70
2021/05/27 07:50:25;;;;;;;8.77;7.97;;;10.60;77.80;;;;;;5188568;28;20037;-70
2021/05/27 07:52:58;;;;;;;8.32;7.63;;;10.60;77.90;;;;;;5188929;28;20132;-70
2021/05/27 07:55:31;;;;;;;8.68;7.97;;;10.70;78.90;;;;;;5190969;28;20050;-70
2021/05/27 07:58:03;;;;;;;8.23;7.53;;;10.80;78.40;;;;;;5203766;28;20091;-71
2021/05/27 08:00:35;;;;;;;8.55;7.75;;;10.70;78.40;;;;;;5189799;28;20050;-70
2021/05/27 08:03:07;;;;;;;8.80;8.00;;;10.80;77.00;;;;;;5190768;28;20638;-70
2021/05/27 08:05:38;;;;;;;8.93;8.18;;;10.80;77.40;;;;;;5188765;28;20046;-70
2021/05/27 08:08:10;;;;;;;9.10;8.30;;;10.80;77.70;;;;;;5193288;28;20053;-70
2021/05/27 08:10:44;;;;;;;8.65;7.78;;;10.80;78.60;;;;;;5189387;28;20057;-71
2021/05/27 08:13:16;;;;;;;8.85;8.10;;;10.80;77.80;;;;;;5187458;28;20556;-70
2021/05/27 08:15:47;;;;;;;8.52;7.82;;;10.90;77.80;;;;;;5191774;28;20599;-70
2021/05/27 08:18:19;;;;;;;8.90;8.10;;;10.90;78.30;;;;;;5191933;28;20057;-70
2021/05/27 08:20:54;;;;;;;9.05;8.35;;;11.00;78.00;;;;;;5190872;28;20065;-71
2021/05/27 08:23:26;;;;;;;9.07;8.20;;;11.10;78.50;;;;;;5190159;28;20054;-70
2021/05/27 08:25:58;;;;;;;9.00;8.30;;;11.10;78.30;;;;;;5190815;28;20045;-71
2021/05/27 08:28:31;;;;;;;9.13;8.32;;;11.10;76.60;;;;;;5191127;28;20116;-70
2021/05/27 08:31:03;;;;;;;9.02;8.23;;;11.10;77.30;;;;;;5188779;28;20049;-72
2021/05/27 08:33:35;;;;;;;9.10;8.30;;;11.10;78.20;;;;;;5174675;28;20068;-70
2021/05/27 08:36:08;;;;;;;9.00;8.30;;;11.20;78.00;;;;;;5188272;28;20668;-70
2021/05/27 08:38:41;;;;;;;8.93;8.23;;;11.20;78.90;;;;;;5191514;28;20050;-70
2021/05/27 08:41:18;;;;;;;9.27;8.48;;;11.20;77.20;;;;;;5189210;28;20609;-71
2021/05/27 08:43:51;;;;;;;9.18;8.40;;;11.20;77.90;;;;;;5191882;28;20045;-71
2021/05/27 08:46:23;;;;;;;8.90;8.13;;;11.20;77.90;;;;;;5193701;28;20792;-71
2021/05/27 08:48:55;;;;;;;8.68;7.88;;;11.20;78.10;;;;;;5211050;28;20041;-71
2021/05/27 08:51:34;;;;;;;8.80;8.10;;;11.20;77.70;;;;;;5186890;28;20157;-71
2021/05/27 08:54:06;;;;;;;9.15;8.45;;;11.20;77.10;;;;;;5174999;28;20050;-71
2021/05/27 08:56:39;;;;;;;8.80;8.10;;;11.20;75.60;;;;;;5188172;28;20119;-71
2021/05/27 08:59:10;;;;;;;8.40;7.70;;;11.20;77.30;;;;;;5188755;28;20085;-70
2021/05/27 09:02:08;;;;;;;8.90;8.20;;;11.10;76.80;;;;;;5203051;28;20073;-70
2021/05/27 09:04:41;;;;;;;8.63;7.93;;;11.10;77.10;;;;;;5189291;28;20467;-71
2021/05/27 09:07:12;;;;;;;9.10;8.30;;;11.00;77.00;;;;;;5188852;28;20046;-70
2021/05/27 09:09:56;;;;;;;9.30;8.60;;;11.00;77.60;;;;;;5178470;28;20077;-70
2021/05/27 09:12:35;;;;;;;9.80;8.93;;;11.10;78.50;;;;;;5204339;28;20057;-70
2021/05/27 09:15:16;;;;;;;9.48;8.57;;;11.10;78.00;;;;;;5192520;28;20037;-70
2021/05/27 09:17:53;;;;;;;9.80;8.90;;;11.20;77.80;;;;;;5189861;28;20118;-71
2021/05/27 09:20:27;;;;;;;9.75;8.95;;;11.20;79.10;;;;;;5188297;28;20050;-70
2021/05/27 09:23:20;;;;;;;9.90;8.93;;;11.30;78.50;;;;;;5189538;28;20499;-71
2021/05/27 09:25:58;;;;;;;9.88;8.98;;;11.40;78.30;;;;;;5189642;28;20129;-71
2021/05/27 09:28:30;;;;;;;9.65;8.85;;;11.50;79.00;;;;;;5190813;28;20124;-70
2021/05/27 09:31:11;;;;;;;10.00;9.10;;;11.50;77.70;;;;;;5188255;28;20612;-69
2021/05/27 09:33:46;;;;;;;9.55;8.85;;;11.60;78.70;;;;;;5186400;28;20065;-70
2021/05/27 09:36:20;;;;;;;9.05;8.30;;;11.60;77.70;;;;;;5172999;28;20731;-70
2021/05/27 09:39:02;;;;;;;9.73;8.82;;;11.60;77.80;;;;;;5190866;28;20085;-71
2021/05/27 09:41:34;;;;;;;9.30;8.50;;;11.60;77.70;;;;;;5187096;28;20405;-71
2021/05/27 09:44:06;;;;;;;8.75;8.05;;;11.60;77.90;;;;;;5171578;28;20042;-72
2021/05/27 09:46:52;;;;;;;8.95;8.23;;;11.50;77.90;;;;;;5188409;28;20141;-71
2021/05/27 09:49:25;;;;;;;8.85;8.15;;;11.50;78.10;;;;;;5190554;28;20049;-70
2021/05/27 09:52:21;;;;;;;9.40;8.60;;;11.50;78.50;;;;;;5171980;28;20045;-71
2021/05/27 09:54:55;;;;;;;9.82;9.02;;;11.60;77.10;;;;;;5172938;28;20521;-70
2021/05/27 09:57:28;;;;;;;9.73;8.93;;;11.60;78.20;;;;;;5188977;28;20049;-71
2021/05/27 10:00:00;;;;;;;10.68;9.77;;;11.80;78.30;;;;;;5189755;28;20042;-70
2021/05/27 10:02:34;;;;;;;10.38;9.50;;;11.90;77.50;;;;;;5185126;28;20400;-70
2021/05/27 10:05:08;;;;;;;9.93;9.10;;;12.00;76.80;;;;;;5189816;28;20488;-71
2021/05/27 10:07:53;;;;;;;10.00;9.23;;;12.00;77.50;;;;;;5188434;28;20125;-71
2021/05/27 10:10:45;;;;;;;9.95;9.23;;;12.00;77.10;;;;;;5188812;28;20534;-70
2021/05/27 10:13:20;;;;;;;10.70;9.82;;;12.00;75.30;;;;;;5187372;28;20078;-70
2021/05/27 10:15:53;;;;;;;10.82;9.93;;;11.90;76.20;;;;;;5187116;28;20037;-72
2021/05/27 10:18:25;;;;;;;11.95;11.00;;;11.80;76.60;;;;;;5184637;28;20092;-71
2021/05/27 10:21:01;;;;;;;10.90;10.10;;;11.90;77.50;;;;;;5188726;28;20033;-70
2021/05/27 10:23:33;;;;;;;11.10;10.27;;;11.90;75.80;;;;;;5186827;28;20029;-70
2021/05/27 10:26:06;;;;;;;9.90;9.10;;;11.80;76.50;;;;;;5189237;28;20065;-70
2021/05/27 10:28:45;;;;;;;9.63;8.93;;;11.70;74.10;;;;;;5186520;28;20103;-70
2021/05/27 10:31:20;;;;;;;12.55;11.23;;;11.70;73.40;;;;;;5186439;28;20091;-70
2021/05/27 10:33:52;;;;;;;10.27;9.45;;;11.70;73.90;;;;;;5188306;28;20037;-70
2021/05/27 10:36:43;;;;;;;9.93;9.13;;;11.70;73.50;;;;;;5186890;28;20049;-70
2021/05/27 10:39:31;;;;;;;9.98;9.27;;;11.70;73.80;;;;;;5189556;28;20104;-70
2021/05/27 10:42:03;;;;;;;9.45;8.75;;;11.60;74.80;;;;;;5200819;28;20041;-71
2021/05/27 10:45:10;;;;;;;9.70;9.00;;;11.60;75.50;;;;;;5188145;28;20034;-70
2021/05/27 10:48:11;;;;;;;9.73;8.93;;;11.70;75.00;;;;;;5187205;28;20057;-70
2021/05/27 10:51:04;;;;;;;;;;;11.70;75.70;;;;;;5186978;28;20123;-71
2021/05/27 10:53:38;;;;;;;9.85;9.05;;;11.70;73.30;;;;;;5188416;28;19924;-70
2021/05/27 10:56:15;;;;;;;9.70;8.90;;;11.70;74.70;;;;;;5195337;28;20459;-70
2021/05/27 10:58:47;;;;;;;10.00;9.20;;;11.60;74.20;;;;;;5175546;28;20716;-70
2021/05/27 11:01:30;;;;;;;9.85;9.15;;;11.60;73.20;;;;;;5183529;28;20140;-70
2021/05/27 11:04:03;;;;;;;9.65;8.75;;;11.60;74.20;;;;;;5177841;28;20049;-71
2021/05/27 11:06:45;;;;;;;9.40;8.60;;;11.60;75.40;;;;;;5191484;28;20065;-70
2021/05/27 11:09:20;;;;;;;9.70;8.90;;;11.70;73.80;;;;;;5189293;28;20038;-70
2021/05/27 11:12:00;;;;;;;9.60;8.90;;;11.70;75.40;;;;;;5189839;28;20458;-70
2021/05/27 11:14:39;;;;;;;9.60;8.90;;;11.70;74.00;;;;;;5179375;28;20056;-71
2021/05/27 11:17:14;;;;;;;9.48;8.70;;;11.70;72.90;;;;;;5189950;28;20522;-72
2021/05/27 11:20:06;;;;;;;9.50;8.80;;;11.70;74.20;;;;;;5194094;28;20042;-71
2021/05/27 11:25:25;;;;;;;9.40;8.70;;;11.80;74.20;;;;;;5190517;28;20459;-70
2021/05/27 11:28:05;;;;;;;9.43;8.73;;;11.90;74.20;;;;;;5191453;28;20740;-71
2021/05/27 11:30:40;;;;;;;9.73;8.93;;;11.90;74.20;;;;;;5193849;28;20120;-70
2021/05/27 11:33:15;;;;;;;9.73;9.02;;;12.00;71.40;;;;;;5191987;28;20040;-70
2021/05/27 11:35:49;;;;;;;10.80;10.00;;;12.00;73.90;;;;;;5187085;28;20038;-71
2021/05/27 11:38:26;;;;;;;10.48;9.68;;;12.30;72.50;;;;;;5192613;28;20108;-70
2021/05/27 11:41:09;;;;;;;10.40;9.60;;;12.40;71.60;;;;;;5189537;28;20524;-71
2021/05/27 11:43:44;;;;;;;10.25;9.45;;;12.40;72.20;;;;;;5191275;28;20095;-70
2021/05/27 11:46:22;;;;;;;10.40;9.60;;;12.40;72.70;;;;;;5187107;28;20049;-70
2021/05/27 11:51:34;;;;;;;10.57;9.77;;;12.40;73.60;;;;;;5188558;28;20042;-70
2021/05/27 11:54:09;;;;;;;10.52;9.73;;;12.50;74.00;;;;;;5191417;28;20057;-70
2021/05/27 11:56:44;;;;;;;10.80;9.95;;;12.60;73.80;;;;;;5189505;28;20045;-71
2021/05/27 11:59:16;;;;;;;10.00;9.20;;;12.50;73.70;;;;;;5189606;28;20069;-70
2021/05/27 12:02:00;;;;;;;11.88;9.65;;;12.50;73.40;;;;;;5187678;28;20567;-71
2021/05/27 12:04:33;;;;;;;10.10;9.30;;;12.40;73.30;;;;;;5179545;28;20045;-71
2021/05/27 12:07:09;;;;;;;10.15;9.25;;;12.30;73.30;;;;;;5158663;28;20046;-71
2021/05/27 12:09:43;;;;;;;10.30;9.50;;;12.30;73.90;;;;;;5175982;28;20504;-70
2021/05/27 12:12:20;;;;;;;10.20;9.40;;;12.30;74.90;;;;;;5187552;28;20135;-70
2021/05/27 12:15:04;;;;;;;10.30;9.50;;;12.40;75.90;;;;;;5190215;28;20074;-70
2021/05/27 12:17:38;;;;;;;10.07;9.20;;;12.30;73.90;;;;;;5190467;28;20099;-70
2021/05/27 12:20:15;;;;;;;9.77;9.07;;;12.10;72.30;;;;;;5188648;28;20082;-70
2021/05/27 12:22:59;;;;;;;9.90;9.10;;;12.00;73.90;;;;;;5204675;28;20049;-70
2021/05/27 12:25:36;;;;;;;9.82;9.13;;;12.00;73.80;;;;;;5175887;28;20073;-71
2021/05/27 12:28:16;;;;;;;9.77;9.07;;;12.00;74.80;;;;;;5188720;28;20564;-71
2021/05/27 12:30:48;;;;;;;;;;;11.90;73.90;;;;;;5188380;28;20049;-70
2021/05/27 12:33:32;;;;;;;10.50;9.70;;;11.90;76.30;;;;;;5187516;28;19926;-70
2021/05/27 12:36:05;;;;;;;10.77;9.98;;;12.10;74.20;;;;;;5202986;28;20665;-70
2021/05/27 12:38:49;;;;;;;10.60;9.70;;;12.30;75.70;;;;;;5173799;28;20509;-70
2021/05/27 12:41:21;;;;;;;10.90;10.10;;;12.60;74.10;;;;;;5189403;28;20099;-71
2021/05/27 12:43:54;;;;;;;11.13;10.23;;;12.90;77.40;;;;;;5190487;28;20053;-70
2021/05/27 12:46:33;;;;;;;11.05;10.25;;;13.20;76.20;;;;;;5191102;28;20092;-70
2021/05/27 12:49:06;;;;;;;10.50;9.70;;;13.40;74.20;;;;;;5192611;28;20448;-70
2021/05/27 12:51:41;;;;;;;10.50;9.70;;;13.60;73.30;;;;;;5189963;28;20129;-70
2021/05/27 12:54:22;;;;;;;11.23;10.43;;;13.70;73.00;;;;;;5192604;28;20057;-70
2021/05/27 12:57:09;;;;;;;10.98;10.18;;;13.80;68.60;;;;;;5187950;28;20531;-70
2021/05/27 12:59:56;;;;;;;10.85;10.05;;;13.80;68.30;;;;;;5186571;28;20100;-70
2021/05/27 13:02:28;;;;;;;11.30;10.40;;;13.90;65.40;;;;;;5185707;28;20053;-71
2021/05/27 13:05:16;;;;;;;11.27;10.48;;;13.90;67.10;;;;;;5188037;28;20045;-70
2021/05/27 13:08:00;;;;;;;11.32;10.48;;;13.80;65.80;;;;;;5186557;28;20046;-71
2021/05/27 13:10:33;;;;;;;10.57;9.77;;;13.70;63.50;;;;;;5187097;28;20057;-71
2021/05/27 13:13:07;;;;;;;10.93;10.13;;;13.50;64.00;;;;;;5189019;28;20050;-70
2021/05/27 13:15:45;;;;;;;10.57;9.77;;;13.60;65.10;;;;;;5187972;28;20941;-70
2021/05/27 13:18:17;;;;;;;10.88;10.07;;;13.50;64.30;;;;;;5189471;28;20038;-71
2021/05/27 13:20:57;;;;;;;11.13;10.32;;;13.30;63.50;;;;;;5187934;28;20038;-70
2021/05/27 13:23:34;;;;;;;10.90;10.10;;;13.40;65.60;;;;;;5187896;28;20107;-71
2021/05/27 13:26:14;;;;;;;9.95;9.25;;;13.50;64.50;;;;;;5176325;28;20045;-71
2021/05/27 13:28:59;;;;;;;10.80;10.00;;;13.40;63.60;;;;;;5188782;28;20140;-70
2021/05/27 13:31:36;;;;;;;10.32;9.52;;;13.30;64.90;;;;;;5190953;28;20053;-68
2021/05/27 13:34:08;;;;;;;10.60;9.80;;;13.30;64.80;;;;;;5190001;28;20053;-70
2021/05/27 13:36:46;;;;;;;10.10;9.40;;;13.10;64.30;;;;;;5205868;28;20520;-71
2021/05/27 13:39:23;;;;;;;10.60;9.80;;;13.10;64.10;;;;;;5203456;28;20046;-70
2021/05/27 13:41:55;;;;;;;10.73;9.93;;;13.30;67.50;;;;;;5189504;28;20386;-70
2021/05/27 13:44:33;;;;;;;11.70;10.90;;;13.60;66.20;;;;;;5188065;28;20741;-70